createdAt,value
2022-11-18T00:02:06.270Z,15.30
2022-11-18T00:06:11.901Z,15.30
2022-11-18T00:10:13.622Z,15.30
2022-11-18T00:14:24.756Z,15.30
2022-11-18T00:18:27.494Z,15.30
2022-11-18T00:22:30.120Z,15.30
2022-11-18T00:26:31.810Z,15.30
2022-11-18T00:30:33.411Z,15.30
2022-11-18T00:34:35.091Z,15.30
2022-11-18T00:38:37.045Z,15.30
2022-11-18T00:42:53.765Z,15.30
2022-11-18T00:46:55.510Z,15.30
2022-11-18T00:51:05.845Z,15.30
2022-11-18T00:55:07.892Z,15.30
2022-11-18T00:59:09.573Z,15.30
2022-11-18T01:03:12.704Z,15.30
2022-11-18T01:07:14.408Z,15.30
2022-11-18T01:11:34.700Z,15.30
2022-11-18T01:15:43.820Z,15.30
2022-11-18T01:19:45.595Z,15.30
2022-11-18T01:23:47.436Z,15.30
2022-11-18T01:27:49.043Z,15.30
2022-11-18T01:32:22.262Z,15.30
2022-11-18T01:36:18.920Z,15.30
2022-11-18T01:40:20.865Z,15.30
2022-11-18T01:44:56.425Z,15.30
2022-11-18T01:49:03.977Z,15.30
2022-11-18T01:53:12.085Z,15.30
2022-11-18T01:57:17.217Z,15.30
2022-11-18T02:01:18.998Z,15.30
2022-11-18T02:05:21.665Z,15.30
2022-11-18T02:09:23.307Z,15.30
2022-11-18T02:13:25.585Z,15.30
2022-11-18T02:18:10.525Z,15.30
2022-11-18T02:22:46.238Z,15.30
2022-11-18T02:27:00.320Z,15.30
2022-11-18T02:31:37.066Z,15.20
2022-11-18T02:35:46.106Z,15.30
2022-11-18T02:39:59.339Z,15.30
2022-11-18T02:44:09.915Z,15.30
2022-11-18T02:48:13.967Z,15.30
2022-11-18T02:52:17.724Z,15.30
2022-11-18T02:56:21.307Z,15.30
2022-11-18T03:00:22.948Z,15.30
2022-11-18T03:04:26.119Z,15.30
2022-11-18T03:08:34.831Z,15.30
2022-11-18T03:12:59.070Z,15.30
2022-11-18T03:17:11.651Z,15.30
2022-11-18T03:21:31.889Z,15.30
2022-11-18T03:25:50.685Z,15.30
2022-11-18T03:30:00.911Z,15.30
2022-11-18T03:34:07.660Z,15.30
2022-11-18T03:38:14.617Z,15.30
2022-11-18T03:42:37.414Z,15.30
2022-11-18T03:46:46.041Z,15.30
2022-11-18T03:50:55.856Z,15.30
2022-11-18T03:55:01.388Z,15.30
2022-11-18T03:59:27.588Z,15.30
2022-11-18T04:03:29.971Z,15.30
2022-11-18T04:07:49.754Z,15.30
2022-11-18T04:12:02.716Z,15.30
2022-11-18T04:16:07.074Z,15.30
2022-11-18T04:20:20.586Z,15.30
2022-11-18T04:24:22.212Z,15.30
2022-11-18T04:28:23.901Z,15.30
2022-11-18T04:32:25.549Z,15.30
2022-11-18T04:36:27.183Z,15.30
2022-11-18T04:40:28.803Z,15.30
2022-11-18T04:44:32.698Z,15.30
2022-11-18T04:48:34.337Z,15.20
2022-11-18T04:52:36.064Z,15.30
2022-11-18T04:56:38.142Z,15.30
2022-11-18T05:00:39.888Z,15.20
2022-11-18T05:04:42.147Z,15.30
2022-11-18T05:08:43.805Z,15.20
2022-11-18T05:12:52.307Z,15.30
2022-11-18T05:16:55.029Z,15.20
2022-11-18T05:20:56.638Z,15.30
2022-11-18T05:24:58.369Z,15.30
2022-11-18T05:29:00.016Z,15.30
2022-11-18T05:33:01.628Z,15.20
2022-11-18T05:37:03.412Z,15.20
2022-11-18T05:41:12.711Z,15.20
2022-11-18T05:45:15.946Z,15.30
2022-11-18T05:49:17.828Z,15.30
2022-11-18T05:53:22.646Z,15.30
2022-11-18T05:57:24.626Z,15.30
2022-11-18T06:01:32.130Z,15.30
2022-11-18T06:05:33.774Z,15.30
2022-11-18T06:09:38.806Z,15.30
2022-11-18T06:13:50.243Z,15.20
2022-11-18T06:18:16.843Z,15.30
2022-11-18T06:22:18.547Z,15.20
2022-11-18T06:26:20.219Z,15.30
2022-11-18T06:30:21.843Z,15.20
2022-11-18T06:34:23.721Z,15.20
2022-11-18T06:38:25.470Z,15.20
2022-11-18T06:42:48.764Z,15.20
2022-11-18T06:46:56.352Z,15.30
2022-11-18T06:50:57.967Z,15.30
2022-11-18T06:54:59.579Z,15.30
2022-11-18T06:59:01.226Z,15.20
2022-11-18T07:03:03.184Z,15.20
2022-11-18T07:07:05.608Z,15.30
2022-11-18T07:11:10.167Z,15.20
2022-11-18T07:15:11.881Z,15.20
2022-11-18T07:19:14.204Z,15.20
2022-11-18T07:23:15.978Z,15.30
2022-11-18T07:27:17.644Z,15.20
2022-11-18T07:31:20.565Z,15.20
2022-11-18T07:35:22.264Z,15.30
2022-11-18T07:39:23.890Z,15.20
2022-11-18T07:43:25.489Z,15.20
2022-11-18T07:47:27.122Z,15.20
2022-11-18T07:51:31.543Z,15.30
2022-11-18T07:55:33.149Z,15.20
2022-11-18T07:59:34.775Z,15.20
2022-11-18T08:03:36.884Z,15.30
2022-11-18T08:07:38.660Z,15.30
2022-11-18T08:11:40.879Z,15.20
2022-11-18T08:15:43.416Z,15.20
2022-11-18T08:19:45.037Z,15.30
2022-11-18T08:23:57.965Z,15.20
2022-11-18T08:27:59.602Z,15.30
2022-11-18T08:32:01.225Z,15.20
2022-11-18T08:36:08.186Z,15.20
2022-11-18T08:40:10.268Z,15.20
2022-11-18T08:44:14.414Z,15.20
2022-11-18T08:48:16.035Z,15.20
2022-11-18T08:52:17.687Z,15.20
2022-11-18T08:56:21.874Z,15.20
2022-11-18T09:00:23.616Z,15.20
2022-11-18T09:04:25.263Z,15.20
2022-11-18T09:08:28.152Z,15.20
2022-11-18T09:12:29.974Z,15.20
2022-11-18T09:16:33.487Z,15.20
2022-11-18T09:20:35.093Z,15.20
2022-11-18T09:24:37.310Z,15.20
2022-11-18T09:28:39.566Z,15.20
2022-11-18T09:32:41.170Z,15.20
2022-11-18T09:36:42.944Z,15.20
2022-11-18T09:40:49.770Z,15.20
2022-11-18T09:45:04.498Z,15.20
2022-11-18T09:49:30.818Z,15.20
2022-11-18T09:53:32.975Z,15.20
2022-11-18T09:57:46.612Z,15.30
2022-11-18T10:01:50.952Z,15.20
2022-11-18T10:05:59.045Z,15.20
2022-11-18T10:10:07.923Z,15.20
2022-11-18T10:14:33.396Z,15.20
2022-11-18T10:19:17.499Z,15.20
2022-11-18T10:23:26.818Z,15.20
2022-11-18T10:27:38.343Z,15.20
2022-11-18T10:31:52.575Z,15.20
2022-11-18T10:36:27.153Z,15.20
2022-11-18T10:40:30.906Z,15.20
2022-11-18T10:44:39.616Z,15.20
2022-11-18T10:48:41.248Z,15.20
2022-11-18T10:52:53.444Z,15.20
2022-11-18T10:57:10.968Z,15.20
2022-11-18T11:01:24.603Z,15.20
2022-11-18T11:05:27.208Z,15.20
2022-11-18T11:09:30.919Z,15.20
2022-11-18T11:13:37.905Z,15.20
2022-11-18T11:17:48.156Z,15.20
2022-11-18T11:21:50.635Z,15.20
2022-11-18T11:30:27.316Z,15.20
2022-11-18T11:34:33.023Z,15.20
2022-11-18T11:38:37.706Z,15.20
2022-11-18T11:42:51.093Z,15.20
2022-11-18T11:47:50.624Z,15.20
2022-11-18T11:51:58.280Z,15.20
2022-11-18T11:56:09.496Z,15.20
2022-11-18T12:00:19.576Z,15.20
2022-11-18T12:04:32.916Z,15.20
2022-11-18T12:08:34.661Z,15.20
2022-11-18T12:12:51.348Z,15.20
2022-11-18T12:17:31.495Z,15.20
2022-11-18T12:21:43.882Z,15.20
2022-11-18T12:25:48.537Z,15.20
2022-11-18T12:29:54.225Z,15.20
2022-11-18T12:33:58.953Z,15.20
2022-11-18T12:38:02.705Z,15.20
2022-11-18T12:42:24.380Z,15.20
2022-11-18T12:46:34.852Z,15.20
2022-11-18T12:50:50.701Z,15.10
2022-11-18T12:54:52.777Z,15.20
2022-11-18T12:58:57.150Z,15.10
2022-11-18T13:03:01.350Z,15.10
2022-11-18T13:07:05.554Z,15.10
2022-11-18T13:11:37.061Z,15.20
2022-11-18T13:16:01.264Z,15.10
2022-11-18T13:20:02.957Z,15.10
2022-11-18T13:24:04.787Z,15.10
2022-11-18T13:28:20.851Z,15.20
2022-11-18T13:32:25.485Z,15.10
2022-11-18T13:36:27.155Z,15.10
2022-11-18T13:40:31.978Z,15.20
2022-11-18T13:44:35.085Z,15.10
2022-11-18T13:48:40.543Z,15.20
2022-11-18T13:53:07.219Z,15.20
2022-11-18T13:57:16.526Z,15.20
2022-11-18T14:01:24.411Z,15.20
2022-11-18T14:05:27.022Z,15.30
2022-11-18T14:09:31.749Z,15.30
2022-11-18T14:13:36.680Z,15.30
2022-11-18T14:17:38.309Z,15.30
2022-11-18T14:21:40.429Z,15.30
2022-11-18T14:25:44.813Z,15.40
2022-11-18T14:29:50.436Z,15.50
2022-11-18T14:34:06.429Z,15.50
2022-11-18T14:38:47.692Z,15.60
2022-11-18T14:42:43.920Z,15.60
2022-11-18T14:46:55.720Z,15.60
2022-11-18T14:50:57.354Z,15.60
2022-11-18T14:54:59.182Z,15.60
2022-11-18T14:59:00.833Z,15.70
2022-11-18T15:03:02.497Z,15.70
2022-11-18T15:07:04.226Z,15.70
2022-11-18T15:11:05.908Z,15.70
2022-11-18T15:15:07.857Z,15.70
2022-11-18T15:19:14.899Z,15.70
2022-11-18T15:23:16.572Z,15.80
2022-11-18T15:27:18.316Z,15.80
2022-11-18T15:31:20.650Z,15.80
2022-11-18T15:35:22.529Z,15.80
2022-11-18T15:39:24.203Z,15.80
2022-11-18T15:43:25.880Z,15.70
2022-11-18T15:47:27.506Z,15.70
2022-11-18T15:51:30.110Z,15.70
2022-11-18T15:55:31.804Z,15.70
2022-11-18T15:59:33.692Z,15.80
2022-11-18T16:03:35.348Z,15.80
2022-11-18T16:07:37.039Z,15.80
2022-11-18T16:11:57.165Z,15.80
2022-11-18T16:15:58.796Z,15.80
2022-11-18T16:20:00.463Z,15.80
2022-11-18T16:24:05.038Z,15.90
2022-11-18T16:28:07.453Z,16.00
2022-11-18T16:32:13.799Z,16.10
2022-11-18T16:36:15.319Z,16.10
2022-11-18T16:40:17.220Z,16.00
2022-11-18T16:44:19.328Z,15.90
2022-11-18T16:48:24.501Z,15.90
2022-11-18T16:52:26.154Z,15.80
2022-11-18T16:56:30.283Z,15.70
2022-11-18T17:00:59.840Z,15.70
2022-11-18T17:04:53.495Z,15.60
2022-11-18T17:08:55.278Z,15.60
2022-11-18T17:12:56.912Z,15.50
2022-11-18T17:17:01.180Z,15.50
2022-11-18T17:21:08.184Z,15.50
2022-11-18T17:25:09.777Z,15.40
2022-11-18T17:29:12.728Z,15.40
2022-11-18T17:33:14.435Z,15.40
2022-11-18T17:37:16.070Z,15.30
2022-11-18T17:41:39.131Z,15.30
2022-11-18T17:45:41.416Z,15.40
2022-11-18T17:49:43.385Z,15.40
2022-11-18T17:53:45.015Z,15.30
2022-11-18T17:57:46.660Z,15.30
2022-11-18T18:01:50.763Z,15.30
2022-11-18T18:06:01.966Z,15.30
2022-11-18T18:10:03.859Z,15.30
2022-11-18T18:14:14.456Z,15.30
2022-11-18T18:18:16.083Z,15.30
2022-11-18T18:22:17.682Z,15.30
2022-11-18T18:26:19.602Z,15.30
2022-11-18T18:30:21.251Z,15.30
2022-11-18T18:34:22.878Z,15.30
2022-11-18T18:38:24.900Z,15.30
2022-11-18T18:42:26.532Z,15.30
2022-11-18T18:46:29.257Z,15.30
2022-11-18T18:50:34.489Z,15.30
2022-11-18T18:54:36.117Z,15.30
2022-11-18T18:58:37.852Z,15.30
2022-11-18T19:02:39.468Z,15.30
2022-11-18T19:06:54.903Z,15.30
2022-11-18T19:11:04.501Z,15.30
2022-11-18T19:15:06.632Z,15.30
2022-11-18T19:19:11.471Z,15.30
2022-11-18T19:23:13.319Z,15.30
2022-11-18T19:27:15.023Z,15.30
2022-11-18T19:31:18.412Z,15.30
2022-11-18T19:35:20.182Z,15.30
2022-11-18T19:39:21.843Z,15.30
2022-11-18T19:43:23.461Z,15.20
2022-11-18T19:47:25.325Z,15.30
2022-11-18T19:51:26.937Z,15.30
2022-11-18T19:55:28.538Z,15.30
2022-11-18T19:59:30.573Z,15.30
2022-11-18T20:03:32.198Z,15.30
2022-11-18T20:07:34.592Z,15.30
2022-11-18T20:11:36.530Z,15.30
2022-11-18T20:15:38.329Z,15.20
2022-11-18T20:19:39.953Z,15.20
2022-11-18T20:23:41.610Z,15.20
2022-11-18T20:27:43.257Z,15.20
2022-11-18T20:31:44.919Z,15.20
2022-11-18T20:35:46.581Z,15.20
2022-11-18T20:39:48.210Z,15.20
2022-11-18T20:43:50.585Z,15.20
2022-11-18T20:47:52.195Z,15.20
2022-11-18T20:51:53.887Z,15.20
2022-11-18T20:55:55.488Z,15.20
2022-11-18T20:59:57.159Z,15.20
2022-11-18T21:04:00.663Z,15.20
2022-11-18T21:08:02.247Z,15.20
2022-11-18T21:12:03.978Z,15.20
2022-11-18T21:16:05.970Z,15.20
2022-11-18T21:20:28.110Z,15.20
2022-11-18T21:24:34.787Z,15.20
2022-11-18T21:28:36.389Z,15.20
2022-11-18T21:32:38.194Z,15.20
2022-11-18T21:36:45.873Z,15.20
2022-11-18T21:40:49.578Z,15.20
2022-11-18T21:44:51.206Z,15.20
2022-11-18T21:48:57.136Z,15.20
2022-11-18T21:53:02.354Z,15.20
2022-11-18T21:57:03.982Z,15.20
2022-11-18T22:01:08.620Z,15.20
2022-11-18T22:05:10.464Z,15.10
2022-11-18T22:09:12.071Z,15.10
2022-11-18T22:13:13.645Z,15.10
2022-11-18T22:17:15.259Z,15.10
2022-11-18T22:21:19.354Z,15.10
2022-11-18T22:25:21.055Z,15.10
2022-11-18T22:29:24.284Z,15.10
2022-11-18T22:33:25.856Z,15.10
2022-11-18T22:37:27.469Z,15.20
2022-11-18T22:41:48.118Z,15.20
2022-11-18T22:45:49.771Z,15.20
2022-11-18T22:49:56.125Z,15.20
2022-11-18T22:54:22.829Z,15.20
2022-11-18T22:58:19.610Z,15.20
2022-11-18T23:02:21.227Z,15.20
2022-11-18T23:06:22.894Z,15.20
2022-11-18T23:10:24.501Z,15.20
2022-11-18T23:14:26.117Z,15.20
2022-11-18T23:18:29.115Z,15.20
2022-11-18T23:22:31.210Z,15.20
2022-11-18T23:26:32.938Z,15.10
2022-11-18T23:30:34.561Z,15.20
2022-11-18T23:34:36.471Z,15.20
2022-11-18T23:38:38.350Z,15.10
2022-11-18T23:42:39.990Z,15.10
2022-11-18T23:46:41.637Z,15.10
2022-11-18T23:51:04.416Z,15.10
2022-11-18T23:55:06.507Z,15.10
2022-11-18T23:59:08.086Z,15.10
